createdAt,value
2022-12-17T00:00:51.734Z,16.65
2022-12-17T00:03:38.056Z,17.80
2022-12-17T00:06:23.600Z,17.48
2022-12-17T00:09:09.540Z,16.88
2022-12-17T00:11:56.164Z,17.23
2022-12-17T00:14:41.954Z,17.40
2022-12-17T00:17:29.929Z,15.93
2022-12-17T00:20:15.693Z,18.27
2022-12-17T00:23:01.649Z,18.35
2022-12-17T00:25:47.612Z,17.00
2022-12-17T00:28:39.187Z,15.43
2022-12-17T00:31:24.735Z,15.50
2022-12-17T00:34:10.172Z,17.23
2022-12-17T00:36:57.942Z,16.83
2022-12-17T00:39:43.690Z,16.33
2022-12-17T00:42:29.562Z,16.55
2022-12-17T00:45:14.791Z,15.95
2022-12-17T00:48:00.258Z,16.48
2022-12-17T00:50:46.209Z,19.15
2022-12-17T00:53:31.867Z,17.70
2022-12-17T00:56:17.779Z,18.05
2022-12-17T00:59:02.940Z,19.50
2022-12-17T01:01:48.896Z,17.65
2022-12-17T01:04:34.459Z,18.83
2022-12-17T01:07:20.205Z,19.90
2022-12-17T01:10:06.624Z,19.08
2022-12-17T01:12:52.897Z,19.27
2022-12-17T01:15:42.090Z,20.10
2022-12-17T01:18:28.229Z,20.33
2022-12-17T01:21:16.693Z,18.63
2022-12-17T01:24:02.433Z,20.65
2022-12-17T01:26:48.396Z,18.80
2022-12-17T01:29:34.294Z,18.65
2022-12-17T01:32:20.082Z,18.65
2022-12-17T01:35:05.986Z,17.30
2022-12-17T01:37:51.282Z,17.73
2022-12-17T01:40:37.016Z,17.75
2022-12-17T01:43:29.301Z,17.27
2022-12-17T01:46:15.336Z,17.75
2022-12-17T01:49:06.903Z,17.95
2022-12-17T01:51:53.621Z,18.58
2022-12-17T01:54:38.972Z,17.58
2022-12-17T01:57:26.692Z,19.83
2022-12-17T02:00:23.328Z,17.88
2022-12-17T02:03:09.407Z,18.25
2022-12-17T02:06:27.829Z,19.33
2022-12-17T02:09:13.613Z,19.23
2022-12-17T02:12:19.049Z,17.30
2022-12-17T02:15:12.101Z,17.80
2022-12-17T02:18:07.023Z,17.80
2022-12-17T02:21:03.177Z,17.52
2022-12-17T02:24:26.383Z,16.40
2022-12-17T02:27:15.312Z,17.38
2022-12-17T02:30:06.412Z,16.55
2022-12-17T02:32:53.975Z,14.57
2022-12-17T02:35:48.496Z,15.13
2022-12-17T02:38:53.434Z,16.88
2022-12-17T02:42:14.715Z,18.30
2022-12-17T02:45:01.211Z,17.77
2022-12-17T02:47:47.816Z,17.95
2022-12-17T02:50:33.285Z,16.48
2022-12-17T02:53:20.678Z,17.35
2022-12-17T02:56:06.113Z,17.98
2022-12-17T02:58:54.446Z,19.67
2022-12-17T03:01:40.283Z,16.63
2022-12-17T03:04:26.741Z,20.58
2022-12-17T03:07:12.613Z,19.65
2022-12-17T03:09:58.580Z,18.13
2022-12-17T03:12:44.369Z,18.35
2022-12-17T03:15:29.747Z,18.02
2022-12-17T03:18:15.104Z,16.65
2022-12-17T03:21:00.431Z,16.00
2022-12-17T03:23:46.280Z,17.35
2022-12-17T03:26:32.154Z,17.70
2022-12-17T03:29:17.920Z,17.08
2022-12-17T03:32:03.495Z,16.05
2022-12-17T03:34:49.341Z,15.35
2022-12-17T03:37:34.813Z,15.48
2022-12-17T03:40:20.669Z,15.27
2022-12-17T03:43:06.021Z,14.73
2022-12-17T03:45:52.176Z,15.07
2022-12-17T03:48:37.555Z,13.85
2022-12-17T03:51:22.950Z,15.57
2022-12-17T03:54:10.082Z,17.73
2022-12-17T03:56:55.975Z,16.15
2022-12-17T03:59:41.160Z,18.15
2022-12-17T04:02:27.236Z,16.77
2022-12-17T04:05:19.712Z,18.23
2022-12-17T04:08:06.172Z,18.55
2022-12-17T04:10:52.046Z,17.00
2022-12-17T04:13:40.992Z,17.90
2022-12-17T04:16:27.929Z,17.80
2022-12-17T04:19:13.670Z,20.05
2022-12-17T04:21:59.077Z,17.77
2022-12-17T04:24:44.890Z,17.45
2022-12-17T04:27:30.203Z,17.23
2022-12-17T04:30:16.251Z,18.02
2022-12-17T04:33:01.916Z,17.98
2022-12-17T04:35:47.751Z,19.20
2022-12-17T04:38:33.472Z,17.75
2022-12-17T04:41:19.258Z,17.20
2022-12-17T04:44:05.110Z,17.52
2022-12-17T04:46:50.910Z,15.80
2022-12-17T04:49:36.660Z,15.65
2022-12-17T04:52:22.158Z,13.80
2022-12-17T04:55:07.802Z,15.65
2022-12-17T04:57:53.774Z,14.13
2022-12-17T05:00:39.749Z,15.15
2022-12-17T05:03:29.603Z,17.30
2022-12-17T05:06:15.470Z,16.52
2022-12-17T05:09:01.177Z,16.55
2022-12-17T05:11:46.557Z,16.58
2022-12-17T05:14:32.399Z,16.48
2022-12-17T05:17:17.942Z,17.25
2022-12-17T05:20:03.825Z,16.75
2022-12-17T05:22:49.021Z,17.55
2022-12-17T05:25:35.054Z,16.77
2022-12-17T05:28:20.471Z,16.73
2022-12-17T05:31:13.354Z,18.58
2022-12-17T05:33:59.126Z,15.85
2022-12-17T05:36:44.959Z,18.17
2022-12-17T05:39:30.780Z,16.77
2022-12-17T05:42:16.264Z,17.92
2022-12-17T05:45:01.552Z,16.63
2022-12-17T05:47:47.620Z,16.65
2022-12-17T05:50:33.966Z,14.10
2022-12-17T05:53:25.088Z,14.85
2022-12-17T05:56:11.574Z,15.25
2022-12-17T05:58:58.088Z,14.13
2022-12-17T06:01:44.146Z,15.60
2022-12-17T06:04:30.751Z,14.43
2022-12-17T06:07:18.299Z,15.15
2022-12-17T06:10:20.925Z,16.40
2022-12-17T06:13:16.019Z,15.63
2022-12-17T06:16:02.202Z,14.10
2022-12-17T06:18:48.229Z,15.90
2022-12-17T06:21:34.073Z,14.60
2022-12-17T06:24:20.008Z,17.20
2022-12-17T06:27:06.061Z,14.27
2022-12-17T06:29:52.134Z,15.40
2022-12-17T06:32:38.220Z,15.50
2022-12-17T06:35:24.202Z,16.10
2022-12-17T06:38:19.322Z,15.38
2022-12-17T06:41:05.387Z,14.27
2022-12-17T06:43:51.393Z,14.43
2022-12-17T06:46:37.553Z,14.07
2022-12-17T06:49:23.642Z,15.55
2022-12-17T06:52:09.659Z,16.60
2022-12-17T06:54:55.540Z,14.82
2022-12-17T06:57:45.104Z,16.02
2022-12-17T07:00:33.600Z,17.67
2022-12-17T07:03:19.527Z,17.40
2022-12-17T07:06:07.374Z,15.93
2022-12-17T07:09:42.414Z,17.95
2022-12-17T07:12:28.314Z,15.52
2022-12-17T07:15:14.247Z,16.50
2022-12-17T07:18:00.220Z,16.27
2022-12-17T07:20:46.212Z,17.30
2022-12-17T07:24:12.442Z,17.52
2022-12-17T07:26:58.316Z,16.33
2022-12-17T07:29:44.143Z,14.48
2022-12-17T07:32:29.876Z,16.38
2022-12-17T07:35:15.794Z,15.70
2022-12-17T07:38:01.746Z,16.02
2022-12-17T07:40:47.514Z,16.92
2022-12-17T07:43:34.178Z,16.63
2022-12-17T07:46:20.489Z,16.52
2022-12-17T07:49:13.301Z,17.58
2022-12-17T07:51:59.132Z,14.68
2022-12-17T07:54:45.042Z,17.08
2022-12-17T07:57:30.877Z,15.52
2022-12-17T08:00:16.735Z,16.85
2022-12-17T08:03:02.934Z,15.93
2022-12-17T08:05:48.738Z,17.48
2022-12-17T08:08:34.762Z,16.63
2022-12-17T08:11:20.686Z,17.85
2022-12-17T08:14:06.732Z,17.67
2022-12-17T08:16:52.610Z,19.38
2022-12-17T08:19:38.460Z,25.20
2022-12-17T08:22:24.448Z,23.85
2022-12-17T08:25:10.241Z,22.95
2022-12-17T08:27:56.248Z,21.05
2022-12-17T08:30:43.405Z,16.80
2022-12-17T08:33:29.655Z,16.70
2022-12-17T08:36:16.408Z,16.55
2022-12-17T08:39:02.339Z,17.25
2022-12-17T08:41:54.067Z,16.10
2022-12-17T08:44:44.499Z,15.25
2022-12-17T08:47:30.266Z,15.73
2022-12-17T08:50:16.102Z,15.75
2022-12-17T08:53:02.124Z,14.98
2022-12-17T08:55:48.672Z,15.55
2022-12-17T08:58:34.587Z,15.30
2022-12-17T09:01:22.121Z,14.70
2022-12-17T09:04:08.042Z,13.73
2022-12-17T09:06:54.010Z,14.65
2022-12-17T09:09:40.013Z,15.82
2022-12-17T09:12:26.153Z,15.02
2022-12-17T09:15:12.024Z,15.88
2022-12-17T09:17:57.810Z,16.17
2022-12-17T09:24:00.710Z,14.45
2022-12-17T09:26:46.538Z,14.70
2022-12-17T09:29:32.451Z,14.63
2022-12-17T09:32:18.883Z,14.18
2022-12-17T09:35:20.899Z,13.60
2022-12-17T09:38:14.334Z,13.70
2022-12-17T09:41:02.627Z,13.57
2022-12-17T09:44:24.996Z,13.90
2022-12-17T09:50:25.209Z,13.77
2022-12-17T09:53:22.482Z,13.38
2022-12-17T09:56:12.164Z,15.18
2022-12-17T09:59:02.772Z,15.65
2022-12-17T10:01:53.198Z,14.40
2022-12-17T10:04:55.948Z,13.75
2022-12-17T10:07:42.840Z,15.35
2022-12-17T10:10:36.708Z,16.73
2022-12-17T10:13:31.227Z,15.73
2022-12-17T10:16:17.787Z,15.05
2022-12-17T10:19:06.057Z,15.45
2022-12-17T10:21:57.709Z,13.45
2022-12-17T10:25:02.617Z,13.77
2022-12-17T10:30:57.416Z,14.00
2022-12-17T10:33:45.976Z,12.50
2022-12-17T10:36:44.395Z,13.20
2022-12-17T10:39:39.976Z,12.68
2022-12-17T10:42:45.596Z,12.35
2022-12-17T10:45:37.871Z,12.50
2022-12-17T10:48:24.300Z,14.38
2022-12-17T10:51:10.218Z,14.88
2022-12-17T10:53:56.345Z,13.07
2022-12-17T10:56:51.508Z,12.98
2022-12-17T10:59:58.620Z,13.90
2022-12-17T11:02:50.008Z,13.88
2022-12-17T11:05:52.823Z,13.68
2022-12-17T11:08:42.024Z,13.65
2022-12-17T11:11:31.519Z,14.13
2022-12-17T11:14:18.453Z,13.27
2022-12-17T11:17:08.367Z,13.93
2022-12-17T11:19:57.314Z,12.73
2022-12-17T11:22:49.180Z,14.20
2022-12-17T11:26:01.376Z,14.35
2022-12-17T11:28:51.333Z,13.65
2022-12-17T11:31:37.359Z,13.80
2022-12-17T11:34:35.966Z,13.75
2022-12-17T11:37:22.142Z,14.43
2022-12-17T11:40:38.103Z,14.73
2022-12-17T11:43:33.137Z,14.38
2022-12-17T11:46:18.981Z,13.77
2022-12-17T11:49:08.227Z,14.73
2022-12-17T11:52:06.705Z,15.85
2022-12-17T11:54:55.529Z,15.65
2022-12-17T11:57:59.009Z,14.57
2022-12-17T12:00:44.978Z,14.65
2022-12-17T12:03:49.492Z,15.00
2022-12-17T12:06:40.048Z,14.35
2022-12-17T12:09:41.367Z,15.18
2022-12-17T12:12:36.019Z,14.48
2022-12-17T12:15:46.664Z,14.93
2022-12-17T12:18:32.942Z,15.82
2022-12-17T12:21:40.115Z,14.77
2022-12-17T12:24:47.408Z,14.85
2022-12-17T12:27:48.061Z,14.70
2022-12-17T12:30:52.118Z,14.80
2022-12-17T12:33:46.954Z,15.02
2022-12-17T12:36:40.918Z,15.32
2022-12-17T12:39:30.850Z,15.60
2022-12-17T12:42:25.900Z,13.82
2022-12-17T12:45:25.653Z,15.38
2022-12-17T12:48:46.481Z,14.63
2022-12-17T12:51:42.972Z,15.48
2022-12-17T12:54:47.196Z,15.70
2022-12-17T12:57:46.624Z,14.52
2022-12-17T13:00:47.309Z,15.63
2022-12-17T13:03:49.109Z,13.70
2022-12-17T13:06:41.947Z,15.32
2022-12-17T13:09:21.790Z,14.13
2022-12-17T13:12:03.988Z,15.63
2022-12-17T13:14:53.631Z,15.07
2022-12-17T13:17:26.762Z,15.15
2022-12-17T13:19:57.115Z,13.80
2022-12-17T13:22:30.347Z,13.70
2022-12-17T13:25:15.985Z,15.50
2022-12-17T13:27:44.972Z,13.57
2022-12-17T13:30:12.341Z,13.88
2022-12-17T13:32:45.383Z,13.23
2022-12-17T13:36:05.295Z,15.80
2022-12-17T13:39:06.547Z,13.43
2022-12-17T13:41:34.738Z,13.40
2022-12-17T13:44:24.275Z,13.07
2022-12-17T13:46:53.830Z,14.73
2022-12-17T13:49:42.072Z,13.15
2022-12-17T13:52:41.292Z,14.75
2022-12-17T13:55:27.313Z,14.00
2022-12-17T13:58:51.074Z,12.45
2022-12-17T14:01:18.628Z,14.07
2022-12-17T14:04:19.654Z,14.32
2022-12-17T14:06:50.026Z,12.40
2022-12-17T14:09:54.192Z,13.65
2022-12-17T14:12:25.753Z,13.57
2022-12-17T14:14:58.540Z,14.20
2022-12-17T14:17:28.021Z,12.35
2022-12-17T14:20:09.845Z,13.07
2022-12-17T14:22:47.774Z,12.57
2022-12-17T14:25:24.446Z,12.35
2022-12-17T14:27:57.676Z,14.23
2022-12-17T14:30:42.919Z,13.52
2022-12-17T14:33:27.896Z,12.23
2022-12-17T14:36:06.903Z,15.68
2022-12-17T14:38:38.994Z,13.23
2022-12-17T14:41:31.462Z,12.70
2022-12-17T14:44:00.216Z,13.30
2022-12-17T14:46:33.157Z,14.13
2022-12-17T14:49:03.951Z,14.15
2022-12-17T14:51:33.601Z,13.70
2022-12-17T14:54:18.708Z,13.45
2022-12-17T14:56:47.644Z,13.77
2022-12-17T14:59:45.142Z,13.67
2022-12-17T15:02:27.952Z,12.68
2022-12-17T15:05:02.133Z,12.55
2022-12-17T15:07:31.497Z,13.15
2022-12-17T15:09:58.925Z,13.30
2022-12-17T15:12:26.597Z,13.55
2022-12-17T15:14:53.968Z,14.43
2022-12-17T15:17:34.730Z,11.60
2022-12-17T15:20:09.913Z,13.38
2022-12-17T15:22:52.442Z,14.32
2022-12-17T15:25:20.356Z,14.63
2022-12-17T15:27:47.756Z,14.77
2022-12-17T15:30:16.725Z,13.82
2022-12-17T15:32:45.280Z,20.20
2022-12-17T15:35:14.170Z,18.15
2022-12-17T15:37:41.821Z,17.38
2022-12-17T15:40:11.876Z,15.18
2022-12-17T15:43:02.915Z,14.00
2022-12-17T15:45:33.293Z,15.13
2022-12-17T15:48:00.637Z,16.48
2022-12-17T15:50:28.618Z,13.90
2022-12-17T15:52:55.893Z,14.95
2022-12-17T15:55:23.153Z,16.52
2022-12-17T15:57:50.363Z,14.82
2022-12-17T16:00:18.355Z,13.70
2022-12-17T16:02:46.415Z,14.85
2022-12-17T16:05:13.800Z,14.88
2022-12-17T16:07:43.365Z,17.10
2022-12-17T16:10:11.749Z,18.83
2022-12-17T16:12:39.424Z,17.77
2022-12-17T16:15:08.374Z,16.00
2022-12-17T16:17:36.186Z,16.83
2022-12-17T16:20:04.634Z,15.85
2022-12-17T16:22:32.011Z,15.13
2022-12-17T16:24:59.125Z,16.40
2022-12-17T16:27:26.623Z,16.35
2022-12-17T16:29:54.230Z,16.55
2022-12-17T16:32:22.202Z,18.25
2022-12-17T16:34:50.308Z,17.13
2022-12-17T16:37:17.750Z,17.42
2022-12-17T16:39:45.135Z,15.52
2022-12-17T16:42:12.657Z,16.42
2022-12-17T16:44:39.937Z,15.13
2022-12-17T16:47:07.491Z,16.90
2022-12-17T16:49:35.323Z,16.58
2022-12-17T16:52:03.834Z,17.88
2022-12-17T16:54:32.743Z,17.65
2022-12-17T16:57:04.152Z,15.82
2022-12-17T16:59:33.919Z,14.02
2022-12-17T17:04:28.968Z,13.93
2022-12-17T17:06:57.194Z,15.25
2022-12-17T17:09:25.535Z,14.63
2022-12-17T17:11:55.287Z,15.00
2022-12-17T17:14:22.544Z,13.60
2022-12-17T17:16:49.830Z,14.65
2022-12-17T17:19:17.587Z,15.75
2022-12-17T17:21:53.948Z,17.80
2022-12-17T17:24:24.091Z,17.58
2022-12-17T17:29:19.532Z,18.73
2022-12-17T17:37:04.335Z,14.85
2022-12-17T17:39:33.409Z,14.75
2022-12-17T17:42:01.020Z,14.60
2022-12-17T17:44:29.015Z,14.27
2022-12-17T17:46:58.910Z,13.95
2022-12-17T17:49:28.682Z,11.85
2022-12-17T17:52:10.737Z,14.70
2022-12-17T17:59:11.810Z,13.43
2022-12-17T18:02:06.299Z,12.48
2022-12-17T18:07:31.405Z,14.70
2022-12-17T18:09:59.851Z,14.10
2022-12-17T18:12:45.987Z,13.68
2022-12-17T18:15:15.303Z,13.35
2022-12-17T18:17:49.636Z,13.60
2022-12-17T18:20:17.327Z,13.82
2022-12-17T18:22:46.164Z,14.05
2022-12-17T18:25:15.544Z,15.27
2022-12-17T18:27:43.693Z,14.50
2022-12-17T18:30:11.183Z,19.80
2022-12-17T18:32:38.138Z,23.55
2022-12-17T18:35:05.570Z,18.73
2022-12-17T18:37:33.050Z,17.42
2022-12-17T18:40:00.407Z,15.52
2022-12-17T18:42:45.692Z,16.25
2022-12-17T18:45:13.020Z,15.57
2022-12-17T18:47:39.885Z,15.05
2022-12-17T18:50:07.175Z,15.25
2022-12-17T18:52:34.064Z,13.07
2022-12-17T18:55:00.952Z,13.43
2022-12-17T18:57:27.830Z,13.57
2022-12-17T18:59:55.157Z,13.20
2022-12-17T19:02:22.219Z,13.63
2022-12-17T19:04:49.576Z,16.33
2022-12-17T19:07:16.457Z,13.23
2022-12-17T19:09:43.802Z,11.85
2022-12-17T19:12:10.722Z,12.20
2022-12-17T19:14:38.226Z,12.50
2022-12-17T19:17:06.066Z,13.50
2022-12-17T19:19:33.388Z,12.70
2022-12-17T19:22:00.447Z,13.48
2022-12-17T19:24:28.046Z,13.48
2022-12-17T19:26:55.285Z,11.85
2022-12-17T19:29:22.774Z,13.13
2022-12-17T19:31:51.507Z,10.60
2022-12-17T19:34:19.806Z,9.73
2022-12-17T19:36:47.599Z,11.50
2022-12-17T19:39:17.079Z,12.25
2022-12-17T19:41:44.849Z,10.75
2022-12-17T19:44:14.172Z,11.60
2022-12-17T19:46:41.866Z,12.32
2022-12-17T19:49:11.775Z,12.85
2022-12-17T19:51:40.477Z,12.70
2022-12-17T19:54:09.225Z,11.73
2022-12-17T19:56:37.121Z,11.88
2022-12-17T19:59:08.006Z,12.45
2022-12-17T20:01:41.660Z,11.70
2022-12-17T20:04:11.180Z,10.40
2022-12-17T20:06:38.611Z,11.13
2022-12-17T20:09:06.487Z,10.85
2022-12-17T20:11:34.589Z,9.57
2022-12-17T20:14:03.206Z,10.02
2022-12-17T20:16:32.751Z,8.50
2022-12-17T20:19:01.109Z,9.60
2022-12-17T20:21:29.037Z,10.25
2022-12-17T20:23:56.420Z,10.00
2022-12-17T20:26:24.387Z,9.63
2022-12-17T20:28:53.676Z,10.57
2022-12-17T20:31:21.364Z,9.60
2022-12-17T20:33:48.808Z,10.43
2022-12-17T20:36:19.764Z,10.30
2022-12-17T20:38:47.282Z,11.40
2022-12-17T20:41:22.990Z,14.10
2022-12-17T20:43:51.116Z,15.35
2022-12-17T20:46:19.705Z,12.32
2022-12-17T20:48:47.856Z,12.77
2022-12-17T20:51:24.014Z,11.80
2022-12-17T20:53:52.902Z,12.95
2022-12-17T20:56:26.616Z,14.50
2022-12-17T20:59:02.750Z,13.65
2022-12-17T21:01:31.995Z,11.32
2022-12-17T21:03:59.898Z,11.00
2022-12-17T21:06:34.734Z,10.55
2022-12-17T21:09:02.630Z,10.77
2022-12-17T21:11:30.640Z,10.35
2022-12-17T21:13:58.186Z,10.43
2022-12-17T21:16:29.073Z,10.13
2022-12-17T21:18:57.613Z,11.32
2022-12-17T21:21:28.033Z,12.13
2022-12-17T21:23:56.133Z,10.32
2022-12-17T21:26:26.476Z,11.50
2022-12-17T21:28:59.578Z,11.50
2022-12-17T21:31:30.329Z,12.20
2022-12-17T21:33:59.423Z,11.75
2022-12-17T21:36:28.349Z,12.63
2022-12-17T21:38:56.018Z,12.65
2022-12-17T21:41:26.645Z,11.60
2022-12-17T21:44:06.012Z,12.48
2022-12-17T21:46:33.424Z,12.85
2022-12-17T21:49:01.565Z,11.50
2022-12-17T21:51:29.760Z,13.48
2022-12-17T21:53:59.910Z,13.15
2022-12-17T21:56:27.560Z,12.60
2022-12-17T21:58:59.483Z,13.98
2022-12-17T22:01:29.574Z,13.13
2022-12-17T22:06:29.012Z,12.43
2022-12-17T22:09:03.623Z,12.50
2022-12-17T22:11:35.346Z,14.20
2022-12-17T22:14:07.287Z,12.32
2022-12-17T22:16:42.417Z,14.00
2022-12-17T22:19:11.663Z,13.02
2022-12-17T22:21:40.504Z,14.37
2022-12-17T22:24:11.741Z,11.77
2022-12-17T22:26:38.881Z,11.85
2022-12-17T22:29:06.203Z,12.18
2022-12-17T22:32:11.422Z,12.90
2022-12-17T22:35:17.130Z,12.23
2022-12-17T22:39:24.467Z,12.55
2022-12-17T22:44:34.587Z,11.82
2022-12-17T22:44:45.554Z,12.98
2022-12-17T22:46:11.173Z,12.80
2022-12-17T22:48:38.089Z,12.35
2022-12-17T22:51:21.872Z,12.60
2022-12-17T22:53:55.950Z,12.07
2022-12-17T22:56:39.888Z,11.93
2022-12-17T22:59:16.559Z,11.30
2022-12-17T23:01:43.984Z,12.32
2022-12-17T23:04:13.914Z,12.48
2022-12-17T23:09:08.431Z,12.23
2022-12-17T23:11:35.363Z,13.25
2022-12-17T23:14:02.791Z,12.57
2022-12-17T23:16:30.732Z,13.98
2022-12-17T23:19:01.247Z,13.57
2022-12-17T23:21:29.282Z,13.00
2022-12-17T23:23:57.608Z,13.32
2022-12-17T23:26:30.894Z,14.35
2022-12-17T23:29:00.143Z,13.82
2022-12-17T23:31:30.983Z,14.57
2022-12-17T23:33:58.433Z,14.10
2022-12-17T23:36:26.642Z,13.63
2022-12-17T23:38:56.132Z,14.07
2022-12-17T23:41:30.968Z,13.75
2022-12-17T23:43:59.126Z,13.73
2022-12-17T23:46:28.638Z,13.55
2022-12-17T23:48:56.340Z,13.95
2022-12-17T23:51:24.722Z,13.50
2022-12-17T23:53:51.717Z,13.68
2022-12-17T23:56:26.424Z,13.63
2022-12-17T23:58:56.043Z,12.68
